createdAt,value
2018-06-22T00:00:55.143Z,102526.95
2018-06-22T00:03:24.135Z,102532.96
2018-06-22T00:05:53.115Z,102510.64
2018-06-22T00:08:21.983Z,102527.34
2018-06-22T00:10:50.915Z,102520.60
2018-06-22T00:13:19.853Z,102520.36
2018-06-22T00:15:48.793Z,102527.05
2018-06-22T00:18:17.761Z,102519.20
2018-06-22T00:20:46.741Z,102523.16
2018-06-22T00:23:15.772Z,102508.30
2018-06-22T00:25:44.673Z,102512.34
2018-06-22T00:28:13.581Z,102508.30
2018-06-22T00:30:45.663Z,102505.60
2018-06-22T00:33:14.584Z,102508.53
2018-06-22T00:35:43.489Z,102509.88
2018-06-22T00:38:12.524Z,102505.73
2018-06-22T00:40:41.475Z,102508.67
2018-06-22T00:43:10.372Z,102506.08
2018-06-22T00:45:39.306Z,102501.98
2018-06-22T00:48:08.248Z,102499.19
2018-06-22T00:50:37.175Z,102489.09
2018-06-22T00:53:16.279Z,102481.15
2018-06-22T00:55:45.204Z,102494.72
2018-06-22T00:58:14.152Z,102491.45
2018-06-22T01:00:43.082Z,102486.00
2018-06-22T01:03:11.995Z,102491.92
2018-06-22T01:05:41.037Z,102491.78
2018-06-22T01:08:10.287Z,102484.66
2018-06-22T01:10:39.261Z,102482.09
2018-06-22T01:13:08.301Z,102486.64
2018-06-22T01:15:37.583Z,102484.72
2018-06-22T01:18:06.617Z,102491.80
2018-06-22T01:20:35.564Z,102487.33
2018-06-22T01:23:04.493Z,102490.66
2018-06-22T01:25:33.465Z,102488.97
2018-06-22T01:28:02.357Z,102478.54
2018-06-22T01:30:31.311Z,102482.87
2018-06-22T01:33:00.267Z,102493.20
2018-06-22T01:35:29.165Z,102481.62
2018-06-22T01:37:58.202Z,102480.51
2018-06-22T01:40:27.097Z,102478.53
2018-06-22T01:42:55.987Z,102481.80
2018-06-22T01:45:24.947Z,102482.67
2018-06-22T01:47:53.833Z,102479.45
2018-06-22T01:50:22.863Z,102480.94
2018-06-22T01:52:51.795Z,102495.36
2018-06-22T01:55:20.717Z,102485.36
2018-06-22T01:57:49.623Z,102479.89
2018-06-22T02:00:18.611Z,102478.00
2018-06-22T02:02:47.516Z,102474.27
2018-06-22T02:05:18.296Z,102484.01
2018-06-22T02:07:47.208Z,102483.53
2018-06-22T02:10:16.119Z,102472.81
2018-06-22T02:12:45.062Z,102473.73
2018-06-22T02:15:14.041Z,102468.30
2018-06-22T02:17:42.931Z,102477.97
2018-06-22T02:20:11.943Z,102489.48
2018-06-22T02:22:40.869Z,102480.36
2018-06-22T02:25:09.825Z,102483.77
2018-06-22T02:27:38.875Z,102484.00
2018-06-22T02:30:07.835Z,102489.14
2018-06-22T02:32:36.770Z,102491.97
2018-06-22T02:35:05.745Z,102484.70
2018-06-22T02:37:34.674Z,102488.27
2018-06-22T02:40:03.631Z,102484.53
2018-06-22T02:42:32.581Z,102491.45
2018-06-22T02:45:01.474Z,102487.75
2018-06-22T02:47:30.397Z,102492.80
2018-06-22T02:49:59.327Z,102493.42
2018-06-22T02:52:28.277Z,102479.58
2018-06-22T02:54:57.215Z,102485.48
2018-06-22T02:57:26.130Z,102487.42
2018-06-22T02:59:55.137Z,102476.36
2018-06-22T03:02:24.092Z,102488.38
2018-06-22T03:04:52.997Z,102489.34
2018-06-22T03:07:22.383Z,102487.84
2018-06-22T03:09:51.291Z,102500.87
2018-06-22T03:12:20.207Z,102491.64
2018-06-22T03:14:49.159Z,102494.37
2018-06-22T03:17:18.059Z,102493.95
2018-06-22T03:19:47.037Z,102490.69
2018-06-22T03:22:15.952Z,102490.81
2018-06-22T03:24:44.875Z,102485.15
2018-06-22T03:27:13.785Z,102494.90
2018-06-22T03:29:42.740Z,102499.90
2018-06-22T03:32:11.731Z,102480.20
2018-06-22T03:34:40.609Z,102498.81
2018-06-22T03:37:09.583Z,102500.67
2018-06-22T03:39:38.492Z,102489.34
2018-06-22T03:42:07.495Z,102486.70
2018-06-22T03:44:36.453Z,102503.27
2018-06-22T03:47:05.383Z,102490.36
2018-06-22T03:49:34.290Z,102497.33
2018-06-22T03:52:03.235Z,102498.78
2018-06-22T03:54:32.223Z,102493.30
2018-06-22T03:57:01.147Z,102493.39
2018-06-22T03:59:30.070Z,102498.34
2018-06-22T04:01:58.997Z,102475.80
2018-06-22T04:04:27.917Z,102493.98
2018-06-22T04:06:56.864Z,102503.29
2018-06-22T04:09:25.767Z,102496.91
2018-06-22T04:11:54.800Z,102488.25
2018-06-22T04:14:23.723Z,102486.95
2018-06-22T04:16:52.635Z,102494.06
2018-06-22T04:19:21.603Z,102505.75
2018-06-22T04:21:50.518Z,102504.17
2018-06-22T04:24:19.431Z,102506.23
2018-06-22T04:26:49.417Z,102508.53
2018-06-22T04:29:19.719Z,102517.20
2018-06-22T04:31:48.679Z,102513.28
2018-06-22T04:34:17.619Z,102500.16
2018-06-22T04:36:46.549Z,102499.53
2018-06-22T04:39:15.564Z,102508.19
2018-06-22T04:41:44.486Z,102512.13
2018-06-22T04:44:13.413Z,102509.64
2018-06-22T04:46:42.346Z,102508.96
2018-06-22T04:49:11.307Z,102510.96
2018-06-22T04:51:40.194Z,102504.50
2018-06-22T04:54:09.195Z,102522.88
2018-06-22T04:56:38.134Z,102479.83
2018-06-22T04:59:07.063Z,102519.44
2018-06-22T05:01:35.994Z,102529.11
2018-06-22T05:04:04.942Z,102520.44
2018-06-22T05:06:33.855Z,102522.28
2018-06-22T05:09:03.661Z,102528.84
2018-06-22T05:11:32.604Z,102506.78
2018-06-22T05:14:01.578Z,102520.22
2018-06-22T05:16:30.572Z,102519.78
2018-06-22T05:18:59.582Z,102519.51
2018-06-22T05:21:28.511Z,102523.30
2018-06-22T05:23:57.497Z,102510.34
2018-06-22T05:26:26.470Z,102536.43
2018-06-22T05:28:55.370Z,102521.84
2018-06-22T05:31:24.338Z,102523.55
2018-06-22T05:33:53.329Z,102497.59
2018-06-22T05:36:22.282Z,102519.74
2018-06-22T05:38:51.251Z,102523.41
2018-06-22T05:41:20.215Z,102535.73
2018-06-22T05:43:49.168Z,102532.79
2018-06-22T05:46:18.074Z,102526.58
2018-06-22T05:48:47.006Z,102519.83
2018-06-22T05:51:15.955Z,102508.41
2018-06-22T05:53:44.907Z,102528.32
2018-06-22T05:56:13.835Z,102532.20
2018-06-22T05:58:42.831Z,102527.88
2018-06-22T06:01:11.720Z,102521.61
2018-06-22T06:03:40.599Z,102545.25
2018-06-22T06:06:09.539Z,102548.48
2018-06-22T06:08:38.458Z,102551.09
2018-06-22T06:11:07.706Z,102539.23
2018-06-22T06:13:36.585Z,102519.83
2018-06-22T06:16:05.693Z,102546.84
2018-06-22T06:18:34.665Z,102556.12
2018-06-22T06:21:03.667Z,102566.84
2018-06-22T06:23:32.596Z,102558.36
2018-06-22T06:26:01.566Z,102564.80
2018-06-22T06:28:30.498Z,102566.19
2018-06-22T06:30:59.480Z,102570.08
2018-06-22T06:33:28.467Z,102567.25
2018-06-22T06:35:57.378Z,102547.45
2018-06-22T06:38:26.371Z,102563.02
2018-06-22T06:40:55.346Z,102562.78
2018-06-22T06:43:24.272Z,102557.23
2018-06-22T06:45:53.238Z,102567.25
2018-06-22T06:48:22.231Z,102568.66
2018-06-22T06:50:51.254Z,102573.22
2018-06-22T06:53:20.184Z,102561.06
2018-06-22T06:55:49.112Z,102590.73
2018-06-22T06:58:18.177Z,102583.70
2018-06-22T07:00:47.124Z,102586.30
2018-06-22T07:03:16.029Z,102596.31
2018-06-22T07:05:44.988Z,102589.34
2018-06-22T07:08:13.948Z,102595.49
2018-06-22T07:10:42.886Z,102601.89
2018-06-22T07:13:11.832Z,102596.78
2018-06-22T07:15:41.738Z,102603.68
2018-06-22T07:18:10.954Z,102604.52
2018-06-22T07:20:46.567Z,102621.41
2018-06-22T07:23:15.498Z,102611.39
2018-06-22T07:25:44.415Z,102616.37
2018-06-22T07:28:13.366Z,102610.27
2018-06-22T07:30:42.396Z,102603.16
2018-06-22T07:33:11.600Z,102617.73
2018-06-22T07:35:40.688Z,102618.34
2018-06-22T07:38:09.674Z,102600.98
2018-06-22T07:40:38.650Z,102630.38
2018-06-22T07:43:07.588Z,102614.94
2018-06-22T07:45:36.594Z,102632.80
2018-06-22T07:48:05.672Z,102630.19
2018-06-22T07:50:34.669Z,102636.27
2018-06-22T07:53:03.605Z,102633.37
2018-06-22T07:55:32.548Z,102625.86
2018-06-22T07:58:02.021Z,102635.30
2018-06-22T08:00:32.951Z,102642.80
2018-06-22T08:03:02.033Z,102658.92
2018-06-22T08:05:32.985Z,102629.07
2018-06-22T08:08:02.013Z,102638.12
2018-06-22T08:10:31.012Z,102650.94
2018-06-22T08:12:59.954Z,102649.38
2018-06-22T08:15:29.909Z,102652.27
2018-06-22T08:17:58.828Z,102656.77
2018-06-22T08:20:27.827Z,102654.91
2018-06-22T08:22:56.775Z,102655.90
2018-06-22T08:25:25.961Z,102658.31
2018-06-22T08:27:54.877Z,102650.94
2018-06-22T08:30:23.884Z,102667.94
2018-06-22T08:32:52.836Z,102657.20
2018-06-22T08:35:21.767Z,102656.52
2018-06-22T08:37:50.771Z,102664.53
2018-06-22T08:40:19.703Z,102670.55
2018-06-22T08:42:48.684Z,102676.46
2018-06-22T08:45:17.653Z,102693.47
2018-06-22T08:47:46.587Z,102675.94
2018-06-22T08:50:15.525Z,102668.75
2018-06-22T08:52:44.457Z,102671.47
2018-06-22T08:55:17.044Z,102675.53
2018-06-22T08:57:46.013Z,102684.98
2018-06-22T09:00:14.987Z,102673.69
2018-06-22T09:02:44.899Z,102687.47
2018-06-22T09:05:13.854Z,102681.70
2018-06-22T09:07:42.848Z,102685.23
2018-06-22T09:10:11.786Z,102687.73
2018-06-22T09:12:40.814Z,102674.89
2018-06-22T09:15:10.774Z,102689.22
2018-06-22T09:17:39.731Z,102686.78
2018-06-22T09:20:08.659Z,102675.33
2018-06-22T09:22:37.572Z,102680.72
2018-06-22T09:25:06.618Z,102677.28
2018-06-22T09:27:35.546Z,102693.55
2018-06-22T09:30:04.884Z,102693.56
2018-06-22T09:32:34.226Z,102715.42
2018-06-22T09:35:03.304Z,102697.34
2018-06-22T09:37:32.334Z,102710.66
2018-06-22T09:40:01.248Z,102701.98
2018-06-22T09:42:33.605Z,102693.05
2018-06-22T09:45:02.543Z,102706.08
2018-06-22T09:47:31.638Z,102705.00
2018-06-22T09:50:00.838Z,102706.67
2018-06-22T09:52:29.819Z,102706.27
2018-06-22T09:54:59.242Z,102704.22
2018-06-22T09:57:28.211Z,102711.04
2018-06-22T09:59:57.177Z,102721.67
2018-06-22T10:02:26.156Z,102718.70
2018-06-22T10:04:55.349Z,102728.28
2018-06-22T10:07:25.290Z,102722.06
2018-06-22T10:09:54.426Z,102713.80
2018-06-22T10:12:23.389Z,102717.95
2018-06-22T10:14:52.367Z,102713.70
2018-06-22T10:17:21.344Z,102715.80
2018-06-22T10:19:50.305Z,102717.50
2018-06-22T10:22:19.274Z,102714.67
2018-06-22T10:24:48.317Z,102716.56
2018-06-22T10:27:17.284Z,102725.16
2018-06-22T10:29:46.381Z,102717.41
2018-06-22T10:32:15.777Z,102713.37
2018-06-22T10:34:44.705Z,102716.53
2018-06-22T10:37:14.764Z,102736.58
2018-06-22T10:39:43.782Z,102724.70
2018-06-22T10:42:12.824Z,102712.98
2018-06-22T10:44:41.787Z,102716.09
2018-06-22T10:47:10.779Z,102714.11
2018-06-22T10:49:40.725Z,102726.48
2018-06-22T10:52:09.938Z,102719.78
2018-06-22T10:54:38.915Z,102710.30
2018-06-22T10:57:07.884Z,102716.62
2018-06-22T10:59:36.991Z,102711.84
2018-06-22T11:02:11.677Z,102716.36
2018-06-22T11:04:40.901Z,102721.74
2018-06-22T11:07:09.895Z,102719.17
2018-06-22T11:09:38.888Z,102730.92
2018-06-22T11:12:07.860Z,102719.80
2018-06-22T11:14:36.795Z,102731.95
2018-06-22T11:17:05.853Z,102744.77
2018-06-22T11:19:34.756Z,102739.35
2018-06-22T11:22:03.865Z,102747.33
2018-06-22T11:24:33.037Z,102745.74
2018-06-22T11:27:02.029Z,102742.83
2018-06-22T11:29:31.024Z,102744.06
2018-06-22T11:32:00.056Z,102738.72
2018-06-22T11:34:29.026Z,102734.97
2018-06-22T11:36:58.039Z,102730.80
2018-06-22T11:39:27.079Z,102737.13
2018-06-22T11:41:55.970Z,102725.17
2018-06-22T11:44:25.013Z,102731.05
2018-06-22T11:46:53.992Z,102731.14
2018-06-22T11:49:22.959Z,102735.30
2018-06-22T11:51:51.869Z,102725.19
2018-06-22T11:54:23.998Z,102735.09
2018-06-22T11:56:52.932Z,102734.83
2018-06-22T11:59:21.877Z,102743.81
2018-06-22T12:01:50.874Z,102726.56
2018-06-22T12:04:19.792Z,102739.17
2018-06-22T12:06:48.986Z,102746.23
2018-06-22T12:09:17.931Z,102743.66
2018-06-22T12:11:46.822Z,102755.57
2018-06-22T12:14:15.768Z,102746.28
2018-06-22T12:16:44.693Z,102745.67
2018-06-22T12:19:13.719Z,102745.86
2018-06-22T12:21:42.570Z,102741.00
2018-06-22T12:24:11.572Z,102730.31
2018-06-22T12:26:40.527Z,102741.36
2018-06-22T12:29:09.443Z,102761.43
2018-06-22T12:31:38.410Z,102740.04
2018-06-22T12:34:07.459Z,102751.16
2018-06-22T12:36:36.843Z,102743.28
2018-06-22T12:39:09.355Z,102747.86
2018-06-22T12:41:38.300Z,102763.11
2018-06-22T12:44:07.276Z,102746.91
2018-06-22T12:46:36.429Z,102754.16
2018-06-22T12:49:05.500Z,102752.70
2018-06-22T12:51:34.419Z,102755.16
2018-06-22T12:54:03.386Z,102758.71
2018-06-22T12:56:32.362Z,102756.19
2018-06-22T12:59:01.274Z,102751.10
2018-06-22T13:01:30.169Z,102759.02
2018-06-22T13:03:59.188Z,102755.40
2018-06-22T13:06:28.089Z,102750.46
2018-06-22T13:08:57.078Z,102758.73
2018-06-22T13:11:26.107Z,102763.88
2018-06-22T13:13:55.078Z,102767.34
2018-06-22T13:16:24.119Z,102770.48
2018-06-22T13:18:53.132Z,102785.37
2018-06-22T13:21:22.100Z,102775.52
2018-06-22T13:23:51.056Z,102778.08
2018-06-22T13:26:19.990Z,102762.27
2018-06-22T13:28:52.824Z,102776.31
2018-06-22T13:31:21.867Z,102775.02
2018-06-22T13:33:50.797Z,102778.73
2018-06-22T13:36:19.853Z,102810.67
2018-06-22T13:38:48.785Z,102792.28
2018-06-22T13:41:17.732Z,102789.19
2018-06-22T13:43:47.724Z,102796.88
2018-06-22T13:46:16.716Z,102788.82
2018-06-22T13:48:45.656Z,102795.05
2018-06-22T13:51:15.481Z,102798.39
2018-06-22T13:53:44.565Z,102791.91
2018-06-22T13:56:13.500Z,102786.45
2018-06-22T13:58:42.501Z,102794.18
2018-06-22T14:01:11.478Z,102785.16
2018-06-22T14:03:44.569Z,102806.16
2018-06-22T14:06:18.933Z,102791.45
2018-06-22T14:08:47.951Z,102783.88
2018-06-22T14:11:16.931Z,102795.42
2018-06-22T14:13:45.945Z,102806.62
2018-06-22T14:16:14.959Z,102801.59
2018-06-22T14:18:45.233Z,102800.78
2018-06-22T14:21:14.168Z,102804.11
2018-06-22T14:23:43.130Z,102802.43
2018-06-22T14:26:12.140Z,102796.81
2018-06-22T14:28:41.051Z,102798.27
2018-06-22T14:31:10.014Z,102807.14
2018-06-22T14:33:38.950Z,102801.91
2018-06-22T14:36:08.486Z,102800.56
2018-06-22T14:38:37.451Z,102805.61
2018-06-22T14:41:06.537Z,102797.98
2018-06-22T14:43:35.565Z,102799.95
2018-06-22T14:46:04.640Z,102805.69
2018-06-22T14:48:33.634Z,102801.28
2018-06-22T14:51:02.578Z,102807.25
2018-06-22T14:53:37.753Z,102803.42
2018-06-22T14:56:11.961Z,102815.45
2018-06-22T14:58:46.246Z,102805.01
2018-06-22T15:01:20.399Z,102800.92
2018-06-22T15:03:57.905Z,102805.27
2018-06-22T15:06:32.174Z,102809.91
2018-06-22T15:09:01.240Z,102813.26
2018-06-22T15:11:30.202Z,102809.47
2018-06-22T15:13:59.147Z,102808.50
2018-06-22T15:16:28.161Z,102809.70
2018-06-22T15:18:58.166Z,102816.08
2018-06-22T15:21:27.169Z,102808.39
2018-06-22T15:23:58.231Z,102814.28
2018-06-22T15:26:27.265Z,102814.61
2018-06-22T15:28:56.250Z,102820.70
2018-06-22T15:31:25.383Z,102815.58
2018-06-22T15:33:59.627Z,102814.88
2018-06-22T15:36:33.862Z,102821.19
2018-06-22T15:39:08.033Z,102822.18
2018-06-22T15:41:42.309Z,102823.09
2018-06-22T15:44:19.684Z,102824.50
2018-06-22T15:46:54.000Z,102824.44
2018-06-22T15:49:28.385Z,102823.84
2018-06-22T15:52:02.714Z,102824.89
2018-06-22T15:54:36.952Z,102830.77
2018-06-22T15:57:06.153Z,102811.74
2018-06-22T15:59:35.090Z,102829.14
2018-06-22T16:02:12.997Z,102825.13
2018-06-22T16:04:42.213Z,102830.94
2018-06-22T16:07:11.260Z,102817.52
2018-06-22T16:09:45.432Z,102818.64
2018-06-22T16:12:19.692Z,102826.97
2018-06-22T16:14:53.890Z,102827.80
2018-06-22T16:17:28.192Z,102821.56
2018-06-22T16:20:02.564Z,102821.10
2018-06-22T16:22:37.933Z,102819.17
2018-06-22T16:25:12.292Z,102828.38
2018-06-22T16:27:43.968Z,102815.06
2018-06-22T16:30:12.968Z,102827.92
2018-06-22T16:32:45.246Z,102844.96
2018-06-22T16:35:17.890Z,102831.16
2018-06-22T16:37:46.884Z,102845.63
2018-06-22T16:40:16.114Z,102839.47
2018-06-22T16:42:45.120Z,102832.54
2018-06-22T16:45:14.321Z,102833.15
2018-06-22T16:47:43.386Z,102841.46
2018-06-22T16:50:15.965Z,102837.20
2018-06-22T16:52:45.078Z,102837.89
2018-06-22T16:55:17.227Z,102835.49
2018-06-22T16:57:46.184Z,102841.62
2018-06-22T17:00:15.235Z,102829.53
2018-06-22T17:02:44.244Z,102843.59
2018-06-22T17:05:13.136Z,102848.22
2018-06-22T17:07:47.374Z,102841.43
2018-06-22T17:11:25.533Z,102841.31
2018-06-22T17:13:59.898Z,102845.48
2018-06-22T17:16:34.323Z,102846.00
2018-06-22T17:19:03.358Z,102852.86
2018-06-22T17:21:32.302Z,102852.77
2018-06-22T17:24:01.222Z,102857.19
2018-06-22T17:26:30.196Z,102853.77
2018-06-22T17:28:59.139Z,102842.77
2018-06-22T17:31:28.169Z,102835.44
2018-06-22T17:33:58.144Z,102847.22
2018-06-22T17:36:27.222Z,102845.44
2018-06-22T17:38:56.175Z,102846.94
2018-06-22T17:41:25.164Z,102833.53
2018-06-22T17:43:54.230Z,102850.37
2018-06-22T17:46:23.242Z,102841.45
2018-06-22T17:48:52.420Z,102855.31
2018-06-22T17:51:21.383Z,102849.27
2018-06-22T17:53:50.265Z,102845.23
2018-06-22T17:56:25.580Z,102842.15
2018-06-22T17:58:59.877Z,102846.92
2018-06-22T18:01:34.610Z,102834.75
2018-06-22T18:04:08.806Z,102842.50
2018-06-22T18:06:43.162Z,102839.91
2018-06-22T18:09:16.262Z,102842.36
2018-06-22T18:11:50.677Z,102847.75
2018-06-22T18:14:19.701Z,102847.66
2018-06-22T18:16:48.744Z,102841.68
2018-06-22T18:19:17.802Z,102848.80
2018-06-22T18:21:46.860Z,102854.05
2018-06-22T18:24:15.920Z,102846.73
2018-06-22T18:26:44.938Z,102849.75
2018-06-22T18:29:13.934Z,102850.77
2018-06-22T18:31:42.892Z,102849.75
2018-06-22T18:34:12.289Z,102852.37
2018-06-22T18:36:41.238Z,102849.84
2018-06-22T18:39:12.715Z,102852.68
2018-06-22T18:41:41.860Z,102852.02
2018-06-22T18:44:15.198Z,102845.11
2018-06-22T18:46:44.484Z,102841.42
2018-06-22T18:49:13.538Z,102855.02
2018-06-22T18:51:42.706Z,102847.86
2018-06-22T18:54:16.920Z,102844.64
2018-06-22T18:56:51.314Z,102847.12
2018-06-22T18:59:25.388Z,102863.28
2018-06-22T19:01:59.632Z,102854.42
2018-06-22T19:04:30.670Z,102859.19
2018-06-22T19:06:59.666Z,102858.54
2018-06-22T19:09:28.647Z,102850.94
2018-06-22T19:11:57.592Z,102844.63
2018-06-22T19:14:26.623Z,102847.85
2018-06-22T19:16:55.566Z,102842.67
2018-06-22T19:19:24.541Z,102846.81
2018-06-22T19:21:53.576Z,102855.55
2018-06-22T19:24:22.527Z,102852.45
2018-06-22T19:26:51.527Z,102845.85
2018-06-22T19:29:22.644Z,102853.64
2018-06-22T19:31:51.519Z,102849.33
2018-06-22T19:34:24.671Z,102853.23
2018-06-22T19:36:54.034Z,102838.20
2018-06-22T19:39:23.033Z,102846.28
2018-06-22T19:41:52.059Z,102844.46
2018-06-22T19:44:26.248Z,102848.06
2018-06-22T19:47:00.665Z,102848.06
2018-06-22T19:49:34.826Z,102841.33
2018-06-22T19:52:09.064Z,102846.71
2018-06-22T19:54:38.118Z,102850.09
2018-06-22T19:57:07.005Z,102850.84
2018-06-22T19:59:48.630Z,102844.94
2018-06-22T20:02:17.925Z,102848.28
2018-06-22T20:04:46.823Z,102851.11
2018-06-22T20:07:15.811Z,102851.48
2018-06-22T20:09:44.751Z,102856.19
2018-06-22T20:12:13.756Z,102857.22
2018-06-22T20:14:43.718Z,102857.92
2018-06-22T20:17:12.652Z,102858.16
2018-06-22T20:19:41.610Z,102871.41
2018-06-22T20:22:10.740Z,102879.48
2018-06-22T20:24:44.987Z,102881.63
2018-06-22T20:27:13.921Z,102884.06
2018-06-22T20:29:42.840Z,102883.52
2018-06-22T20:32:14.634Z,102879.59
2018-06-22T20:34:49.620Z,102891.70
2018-06-22T20:37:23.939Z,102895.99
2018-06-22T20:39:58.256Z,102898.36
2018-06-22T20:42:32.478Z,102901.12
2018-06-22T20:45:10.715Z,102897.09
2018-06-22T20:48:50.747Z,102895.45
2018-06-22T20:51:19.689Z,102899.91
2018-06-22T20:53:48.617Z,102905.80
2018-06-22T20:56:17.702Z,102898.78
2018-06-22T20:58:46.577Z,102895.86
2018-06-22T21:01:15.548Z,102891.87
2018-06-22T21:03:44.528Z,102896.48
2018-06-22T21:06:13.472Z,102900.61
2018-06-22T21:08:42.424Z,102898.42
2018-06-22T21:11:11.448Z,102896.58
2018-06-22T21:13:40.404Z,102894.86
2018-06-22T21:16:12.872Z,102895.47
2018-06-22T21:18:41.877Z,102886.56
2018-06-22T21:21:16.025Z,102887.00
2018-06-22T21:23:44.940Z,102883.08
2018-06-22T21:26:13.850Z,102880.86
2018-06-22T21:28:48.014Z,102891.73
2018-06-22T21:31:22.296Z,102891.30
2018-06-22T21:33:56.651Z,102890.90
2018-06-22T21:36:30.969Z,102897.06
2018-06-22T21:39:01.900Z,102889.91
2018-06-22T21:41:30.779Z,102892.97
2018-06-22T21:44:00.583Z,102896.03
2018-06-22T21:46:29.574Z,102892.59
2018-06-22T21:48:58.509Z,102888.09
2018-06-22T21:51:27.489Z,102886.35
2018-06-22T21:53:56.436Z,102889.23
2018-06-22T21:56:25.613Z,102889.23
2018-06-22T21:58:54.630Z,102888.95
2018-06-22T22:01:23.615Z,102892.13
2018-06-22T22:03:52.618Z,102888.64
2018-06-22T22:06:21.561Z,102888.98
2018-06-22T22:08:50.514Z,102893.10
2018-06-22T22:11:19.497Z,102886.42
2018-06-22T22:13:48.495Z,102879.30
2018-06-22T22:16:17.469Z,102880.77
2018-06-22T22:18:46.381Z,102887.01
2018-06-22T22:21:15.427Z,102883.86
2018-06-22T22:23:44.308Z,102883.91
2018-06-22T22:26:13.233Z,102891.51
2018-06-22T22:28:42.193Z,102886.19
2018-06-22T22:31:11.153Z,102877.30
2018-06-22T22:33:40.067Z,102879.95
2018-06-22T22:36:09.064Z,102876.85
2018-06-22T22:38:38.026Z,102881.76
2018-06-22T22:41:07.043Z,102882.20
2018-06-22T22:43:36.108Z,102881.32
2018-06-22T22:46:05.150Z,102880.13
2018-06-22T22:48:34.071Z,102874.82
2018-06-22T22:51:04.042Z,102872.14
2018-06-22T22:53:32.962Z,102868.95
2018-06-22T22:56:01.907Z,102864.92
2018-06-22T22:58:30.901Z,102860.39
2018-06-22T23:00:59.863Z,102861.89
2018-06-22T23:03:28.957Z,102858.68
2018-06-22T23:05:57.918Z,102855.61
2018-06-22T23:08:26.897Z,102853.42
2018-06-22T23:10:55.992Z,102855.70
2018-06-22T23:13:24.978Z,102857.89
2018-06-22T23:15:53.922Z,102858.36
2018-06-22T23:18:25.929Z,102853.02
2018-06-22T23:20:54.857Z,102849.05
2018-06-22T23:23:37.860Z,102849.43
2018-06-22T23:26:07.078Z,102835.63
2018-06-22T23:28:36.051Z,102844.62
2018-06-22T23:31:06.076Z,102847.36
2018-06-22T23:33:35.099Z,102845.17
2018-06-22T23:36:04.788Z,102847.89
2018-06-22T23:38:34.192Z,102850.19
2018-06-22T23:41:03.160Z,102848.41
2018-06-22T23:43:33.155Z,102845.33
2018-06-22T23:46:02.196Z,102847.07
2018-06-22T23:48:31.126Z,102849.75
2018-06-22T23:51:00.173Z,102845.33
2018-06-22T23:53:29.128Z,102849.35
2018-06-22T23:55:58.111Z,102852.94
2018-06-22T23:58:27.047Z,102845.35
